Wetterdaten: Woche 29.10.12 - 04.11.12 (KW44)
Datum Zeit Temp. A. Feuchte A. Luftdruck Regen Wind Richtung Taupunkt Windchill Windben
29.10.2012 00:00 0,8 C 85 % 1013,3 hPa 0,0 l/m 2,2 km/h N -1,5 C 0,8 C 8,0 km/h
29.10.2012 01:00 0,5 C 84 % 1013,1 hPa 0,0 l/m 1,4 km/h N -1,9 C 0,5 C 4,4 km/h
29.10.2012 02:00 0,4 C 83 % 1013,3 hPa 0,0 l/m 1,7 km/h N -2,1 C 0,4 C 6,8 km/h
29.10.2012 03:00 0,4 C 82 % 1013,1 hPa 0,0 l/m 2,2 km/h N -2,3 C 0,4 C 6,8 km/h
29.10.2012 04:00 0,4 C 82 % 1013,1 hPa 0,0 l/m 0,7 km/h N -2,4 C 0,4 C 4,0 km/h
29.10.2012 05:00 0,4 C 81 % 1013,2 hPa 0,0 l/m 0,8 km/h N -2,5 C 0,4 C 3,6 km/h
29.10.2012 06:00 0,3 C 81 % 1013,1 hPa 0,0 l/m 0,0 km/h N -2,6 C 0,3 C 0,0 km/h
29.10.2012 07:00 0,4 C 81 % 1013,3 hPa 0,0 l/m 0,1 km/h N -2,5 C 0,4 C 1,2 km/h
29.10.2012 08:00 0,6 C 80 % 1013,4 hPa 0,0 l/m 1,0 km/h N -2,4 C 0,6 C 4,0 km/h
29.10.2012 09:00 0,7 C 81 % 1013,5 hPa 0,0 l/m 7,1 km/h N -2,2 C -0,1 C 20,5 km/h
29.10.2012 10:00 0,7 C 81 % 1013,6 hPa 0,0 l/m 7,9 km/h N -2,2 C -0,7 C 21,3 km/h
29.10.2012 11:00 0,8 C 82 % 1013,8 hPa 0,0 l/m 8,9 km/h N -2,0 C -1,6 C 21,7 km/h
29.10.2012 12:00 1,0 C 84 % 1013,4 hPa 0,8 l/m 8,8 km/h N -1,5 C -1,2 C 23,3 km/h
29.10.2012 13:00 1,3 C 85 % 1012,9 hPa 0,8 l/m 10,1 km/h N -1,0 C -2,1 C 23,3 km/h
29.10.2012 14:00 1,6 C 85 % 1012,9 hPa 1,6 l/m 10,8 km/h N -0,6 C -2,3 C 22,1 km/h
29.10.2012 15:00 1,8 C 85 % 1013,0 hPa 0,8 l/m 9,5 km/h N -0,5 C -1,0 C 23,7 km/h
29.10.2012 16:00 1,9 C 84 % 1013,0 hPa 0,8 l/m 10,3 km/h N -0,5 C -1,5 C 23,7 km/h
29.10.2012 17:00 1,9 C 83 % 1013,0 hPa 0,5 l/m 10,7 km/h N -0,7 C -1,9 C 23,8 km/h
29.10.2012 18:00 1,9 C 84 % 1013,3 hPa 0,3 l/m 9,0 km/h N -0,6 C -0,5 C 22,1 km/h
29.10.2012 19:00 1,8 C 83 % 1013,4 hPa 0,5 l/m 10,1 km/h N -0,7 C -1,5 C 26,1 km/h
29.10.2012 20:00 1,7 C 82 % 1013,7 hPa 0,0 l/m 9,4 km/h N -1,0 C -1,0 C 24,5 km/h
29.10.2012 21:00 1,6 C 82 % 1013,8 hPa 0,3 l/m 8,5 km/h N -1,1 C -0,3 C 20,9 km/h
29.10.2012 22:00 1,5 C 82 % 1013,6 hPa 0,0 l/m 7,9 km/h N -1,3 C -0,0 C 19,7 km/h
29.10.2012 23:00 1,4 C 81 % 1013,2 hPa 0,0 l/m 7,5 km/h N -1,6 C 0,3 C 19,7 km/h
30.10.2012 00:00 1,4 C 79 % 1012,7 hPa 0,0 l/m 10,4 km/h N -1,8 C -2,1 C 24,5 km/h
30.10.2012 01:00 1,0 C 81 % 1012,6 hPa 0,0 l/m 5,9 km/h N -1,9 C 0,5 C 17,3 km/h
30.10.2012 02:00 0,9 C 81 % 1012,5 hPa 0,0 l/m 5,5 km/h N -1,9 C 0,9 C 14,5 km/h
30.10.2012 03:00 1,0 C 79 % 1012,1 hPa 0,0 l/m 7,0 km/h N -2,3 C -0,3 C 18,9 km/h
30.10.2012 04:00 0,8 C 78 % 1011,7 hPa 0,0 l/m 5,6 km/h N -2,6 C 0,6 C 16,1 km/h
30.10.2012 05:00 0,3 C 79 % 1011,3 hPa 0,0 l/m 1,8 km/h N -3,0 C 0,3 C 7,6 km/h
30.10.2012 06:00 -1,2 C 80 % 1011,3 hPa 0,0 l/m 0,0 km/h N -4,2 C -1,2 C 0,4 km/h
30.10.2012 07:00 -1,6 C 84 % 1011,4 hPa 0,0 l/m 0,0 km/h N -3,9 C -1,6 C 0,0 km/h
30.10.2012 08:00 0,5 C 85 % 1011,1 hPa 0,3 l/m 0,5 km/h N -1,8 C 0,5 C 3,2 km/h
30.10.2012 09:00 2,2 C 75 % 1010,8 hPa 0,3 l/m 1,8 km/h N -1,8 C 2,2 C 7,6 km/h
30.10.2012 10:00 3,4 C 70 % 1010,4 hPa 0,5 l/m 1,5 km/h N -1,6 C 3,4 C 6,0 km/h
30.10.2012 11:00 3,9 C 68 % 1009,9 hPa 0,5 l/m 3,0 km/h N -1,5 C 3,9 C 9,3 km/h
30.10.2012 12:00 4,7 C 67 % 1009,4 hPa 0,8 l/m 3,4 km/h N -1,0 C 4,7 C 9,3 km/h
30.10.2012 13:00 5,3 C 65 % 1009,0 hPa 0,5 l/m 3,6 km/h N -0,8 C 5,3 C 9,3 km/h
30.10.2012 14:00 5,3 C 63 % 1008,9 hPa 0,3 l/m 2,3 km/h N -1,3 C 5,3 C 7,3 km/h
30.10.2012 15:00 5,4 C 66 % 1008,9 hPa 0,0 l/m 0,0 km/h N -0,5 C 5,4 C 1,2 km/h
30.10.2012 16:00 5,3 C 72 % 1009,1 hPa 0,0 l/m 0,1 km/h N 0,7 C 5,3 C 2,8 km/h
30.10.2012 17:00 4,4 C 78 % 1009,5 hPa 0,0 l/m 0,4 km/h N 0,8 C 4,4 C 3,2 km/h
30.10.2012 18:00 4,0 C 80 % 1009,6 hPa 0,0 l/m 0,2 km/h N 0,8 C 4,0 C 2,4 km/h
30.10.2012 19:00 3,5 C 81 % 1009,8 hPa 0,0 l/m 0,3 km/h N 0,5 C 3,5 C 2,8 km/h
30.10.2012 20:00 3,0 C 83 % 1009,6 hPa 0,0 l/m 0,0 km/h N 0,3 C 3,0 C 0,4 km/h
30.10.2012 21:00 1,9 C 83 % 1009,7 hPa 0,0 l/m 0,0 km/h N -0,7 C 1,9 C 0,8 km/h
30.10.2012 22:00 1,0 C 85 % 1009,7 hPa 0,0 l/m 0,1 km/h N -1,3 C 1,0 C 0,8 km/h
30.10.2012 23:00 -0,0 C 85 % 1009,9 hPa 0,0 l/m 0,1 km/h N -2,2 C -0,0 C 2,0 km/h
31.10.2012 00:00 0,2 C 85 % 1009,6 hPa 0,0 l/m 0,1 km/h N -2,0 C 0,2 C 1,6 km/h
31.10.2012 01:00 -0,3 C 85 % 1009,6 hPa 0,0 l/m 0,0 km/h N -2,5 C -0,3 C 0,0 km/h
31.10.2012 02:00 -0,5 C 84 % 1009,5 hPa 0,0 l/m 0,0 km/h N -2,8 C -0,5 C 0,0 km/h
31.10.2012 03:00 -0,6 C 84 % 1009,4 hPa 0,0 l/m 0,0 km/h N -2,9 C -0,6 C 0,0 km/h
31.10.2012 04:00 -1,1 C 84 % 1009,9 hPa 0,0 l/m 0,0 km/h N -3,4 C -1,1 C 0,0 km/h
31.10.2012 05:00 -1,4 C 84 % 1010,0 hPa 0,0 l/m 0,0 km/h N -3,7 C -1,4 C 0,0 km/h
31.10.2012 06:00 -2,0 C 84 % 1010,2 hPa 0,0 l/m 0,0 km/h N -4,4 C -2,0 C 0,0 km/h
31.10.2012 07:00 -1,3 C 83 % 1010,7 hPa 0,0 l/m 0,0 km/h N -3,9 C -1,3 C 1,2 km/h
31.10.2012 08:00 -0,4 C 82 % 1011,1 hPa 0,0 l/m 1,0 km/h N -3,1 C -0,4 C 5,2 km/h
31.10.2012 09:00 -0,1 C 81 % 1011,3 hPa 0,0 l/m 2,5 km/h N -2,9 C -0,1 C 7,6 km/h
31.10.2012 10:00 0,4 C 81 % 1011,3 hPa 0,0 l/m 2,1 km/h N -2,5 C 0,4 C 6,4 km/h
31.10.2012 11:00 1,3 C 80 % 1010,9 hPa 0,0 l/m 2,8 km/h N -1,8 C 1,3 C 9,3 km/h
31.10.2012 12:00 2,3 C 82 % 1010,3 hPa 0,0 l/m 5,3 km/h N -0,5 C 2,3 C 14,5 km/h
31.10.2012 13:00 3,9 C 85 % 1009,3 hPa 0,0 l/m 5,0 km/h N 1,6 C 3,9 C 12,5 km/h
31.10.2012 14:00 5,5 C 81 % 1008,3 hPa 0,0 l/m 4,6 km/h N 2,6 C 5,5 C 12,1 km/h
31.10.2012 15:00 6,7 C 79 % 1007,5 hPa 0,0 l/m 2,9 km/h N 3,4 C 6,7 C 8,4 km/h
31.10.2012 16:00 6,7 C 80 % 1007,0 hPa 0,0 l/m 1,0 km/h N 3,4 C 6,7 C 6,8 km/h
31.10.2012 17:00 5,7 C 82 % 1006,8 hPa 0,0 l/m 1,0 km/h N 2,8 C 5,7 C 6,4 km/h
31.10.2012 18:00 6,6 C 84 % 1006,7 hPa 0,0 l/m 6,3 km/h N 4,1 C 6,1 C 17,3 km/h
31.10.2012 19:00 8,3 C 74 % 1006,6 hPa 0,0 l/m 12,9 km/h N 3,9 C 4,1 C 28,6 km/h
31.10.2012 20:00 7,5 C 75 % 1006,9 hPa 0,0 l/m 10,1 km/h N 3,4 C 4,7 C 25,7 km/h
31.10.2012 21:00 6,7 C 78 % 1006,8 hPa 0,0 l/m 8,6 km/h N 3,1 C 4,8 C 25,7 km/h
31.10.2012 22:00 6,3 C 78 % 1006,3 hPa 0,0 l/m 7,4 km/h N 2,7 C 4,8 C 24,1 km/h
31.10.2012 23:00 5,7 C 81 % 1005,8 hPa 0,0 l/m 5,9 km/h N 2,6 C 5,6 C 20,9 km/h
01.11.2012 00:00 5,3 C 81 % 1005,0 hPa 0,0 l/m 5,2 km/h N 2,3 C 5,3 C 17,3 km/h
01.11.2012 01:00 4,5 C 82 % 1004,1 hPa 0,0 l/m 3,3 km/h N 1,7 C 4,5 C 10,5 km/h
01.11.2012 02:00 4,3 C 83 % 1003,5 hPa 0,0 l/m 3,2 km/h N 1,7 C 4,3 C 11,7 km/h
01.11.2012 03:00 4,4 C 84 % 1002,4 hPa 0,0 l/m 2,0 km/h N 1,9 C 4,4 C 10,4 km/h
01.11.2012 04:00 4,2 C 84 % 1001,1 hPa 0,0 l/m 1,4 km/h N 1,7 C 4,2 C 7,6 km/h
01.11.2012 05:00 3,8 C 82 % 1000,3 hPa 0,0 l/m 1,2 km/h N 0,9 C 3,8 C 8,1 km/h
01.11.2012 06:00 3,8 C 83 % 999,3 hPa 0,5 l/m 1,3 km/h N 1,1 C 3,8 C 6,8 km/h
01.11.2012 07:00 3,7 C 85 % 998,6 hPa 1,3 l/m 1,9 km/h N 1,4 C 3,7 C 6,4 km/h
01.11.2012 08:00 4,1 C 83 % 998,0 hPa 1,3 l/m 5,2 km/h N 1,5 C 3,7 C 13,3 km/h
01.11.2012 09:00 4,8 C 81 % 997,1 hPa 0,0 l/m 7,5 km/h N 1,8 C 3,7 C 18,5 km/h
01.11.2012 10:00 5,0 C 81 % 996,6 hPa 0,0 l/m 8,3 km/h N 2,0 C 3,4 C 20,5 km/h
01.11.2012 11:00 5,2 C 80 % 995,6 hPa 0,0 l/m 10,3 km/h N 2,1 C 2,1 C 22,9 km/h
01.11.2012 12:00 5,6 C 79 % 995,1 hPa 0,0 l/m 7,8 km/h N 2,2 C 4,2 C 21,3 km/h
01.11.2012 13:00 6,2 C 79 % 994,7 hPa 0,3 l/m 7,3 km/h N 2,8 C 5,5 C 21,3 km/h
01.11.2012 14:00 6,6 C 79 % 994,5 hPa 0,0 l/m 5,5 km/h N 3,2 C 6,3 C 15,3 km/h
01.11.2012 15:00 6,8 C 79 % 994,9 hPa 0,0 l/m 3,0 km/h N 3,5 C 6,8 C 10,1 km/h
01.11.2012 16:00 6,9 C 80 % 995,5 hPa 0,0 l/m 0,1 km/h N 3,7 C 6,9 C 0,8 km/h
01.11.2012 17:00 6,5 C 80 % 996,0 hPa 0,0 l/m 0,0 km/h N 3,4 C 6,5 C 0,0 km/h
01.11.2012 18:00 6,1 C 81 % 996,3 hPa 0,0 l/m 0,0 km/h N 3,1 C 6,1 C 0,0 km/h
01.11.2012 19:00 5,6 C 81 % 997,0 hPa 0,0 l/m 0,0 km/h N 2,6 C 5,6 C 0,0 km/h
01.11.2012 20:00 5,4 C 80 % 997,4 hPa 0,0 l/m 0,0 km/h N 2,3 C 5,4 C 0,0 km/h
01.11.2012 21:00 5,4 C 80 % 997,8 hPa 0,0 l/m 0,1 km/h N 2,2 C 5,4 C 0,8 km/h
01.11.2012 22:00 5,5 C 80 % 998,0 hPa 0,0 l/m 0,0 km/h N 2,4 C 5,5 C 0,0 km/h
01.11.2012 23:00 5,6 C 80 % 998,6 hPa 0,0 l/m 0,0 km/h N 2,3 C 5,6 C 0,0 km/h
02.11.2012 00:00 5,3 C 80 % 999,2 hPa 0,0 l/m 0,0 km/h N 2,1 C 5,3 C 0,0 km/h
02.11.2012 01:00 4,6 C 80 % 999,8 hPa 0,0 l/m 0,2 km/h N 1,4 C 4,6 C 1,6 km/h
02.11.2012 02:00 3,5 C 81 % 1000,6 hPa 0,0 l/m 0,0 km/h N 0,6 C 3,5 C 0,0 km/h
02.11.2012 03:00 2,2 C 81 % 1001,3 hPa 0,0 l/m 0,0 km/h N -0,7 C 2,2 C 0,0 km/h
02.11.2012 04:00 1,4 C 81 % 1002,2 hPa 0,0 l/m 0,0 km/h N -1,5 C 1,4 C 0,0 km/h
02.11.2012 05:00 1,3 C 80 % 1003,0 hPa 0,0 l/m 0,0 km/h N -1,7 C 1,3 C 0,0 km/h
02.11.2012 06:00 3,2 C 78 % 1004,2 hPa 0,0 l/m 0,5 km/h N -0,2 C 3,2 C 3,6 km/h
02.11.2012 07:00 4,9 C 78 % 1005,6 hPa 0,0 l/m 2,2 km/h N 1,3 C 4,9 C 12,5 km/h
02.11.2012 08:00 7,4 C 79 % 1006,1 hPa 0,3 l/m 8,1 km/h N 4,1 C 6,0 C 26,5 km/h
02.11.2012 09:00 8,2 C 82 % 1006,9 hPa 0,0 l/m 2,9 km/h N 5,2 C 8,2 C 15,7 km/h
02.11.2012 10:00 8,8 C 74 % 1007,9 hPa 0,0 l/m 4,2 km/h N 4,3 C 8,8 C 17,3 km/h
02.11.2012 11:00 9,0 C 74 % 1008,0 hPa 0,0 l/m 3,1 km/h N 4,5 C 9,0 C 12,1 km/h
02.11.2012 12:00 9,9 C 71 % 1007,6 hPa 0,0 l/m 0,3 km/h N 4,8 C 9,9 C 4,4 km/h
02.11.2012 13:00 10,2 C 69 % 1008,0 hPa 0,0 l/m 0,4 km/h N 4,7 C 10,2 C 4,0 km/h
02.11.2012 14:00 10,3 C 72 % 1008,3 hPa 0,0 l/m 0,7 km/h N 5,5 C 10,3 C 4,8 km/h
02.11.2012 15:00 9,7 C 78 % 1009,1 hPa 0,0 l/m 0,9 km/h N 6,0 C 9,7 C 4,8 km/h
02.11.2012 16:00 8,8 C 80 % 1009,2 hPa 0,0 l/m 0,1 km/h N 5,5 C 8,8 C 2,8 km/h
02.11.2012 17:00 6,4 C 80 % 1010,0 hPa 0,0 l/m 0,0 km/h N 3,3 C 6,4 C 0,0 km/h
02.11.2012 18:00 4,2 C 82 % 1010,4 hPa 0,0 l/m 0,0 km/h N 1,4 C 4,2 C 0,4 km/h
02.11.2012 19:00 2,8 C 85 % 1009,8 hPa 0,0 l/m 0,0 km/h N 0,5 C 2,8 C 0,8 km/h
02.11.2012 20:00 2,5 C 85 % 1009,3 hPa 0,0 l/m 0,1 km/h N 0,2 C 2,5 C 2,4 km/h
02.11.2012 21:00 3,1 C 83 % 1008,9 hPa 0,0 l/m 1,7 km/h N 0,4 C 3,1 C 6,9 km/h
02.11.2012 22:00 4,3 C 83 % 1008,2 hPa 0,0 l/m 0,9 km/h N 1,6 C 4,3 C 6,8 km/h
02.11.2012 23:00 4,5 C 83 % 1007,4 hPa 0,0 l/m 1,4 km/h N 1,8 C 4,5 C 7,2 km/h
03.11.2012 00:00 4,8 C 85 % 1007,2 hPa 0,0 l/m 0,0 km/h N 2,4 C 4,8 C 0,8 km/h
03.11.2012 01:00 3,4 C 85 % 1007,8 hPa 0,0 l/m 0,3 km/h N 1,1 C 3,4 C 2,4 km/h
03.11.2012 02:00 2,5 C 85 % 1009,0 hPa 0,0 l/m 1,4 km/h N 0,2 C 2,5 C 6,4 km/h
03.11.2012 03:00 1,8 C 84 % 1009,3 hPa 0,0 l/m 0,1 km/h N -0,5 C 1,8 C 1,6 km/h
03.11.2012 04:00 1,3 C 84 % 1009,9 hPa 0,0 l/m 0,1 km/h N -1,1 C 1,3 C 2,0 km/h
03.11.2012 05:00 1,0 C 83 % 1010,5 hPa 0,0 l/m 0,1 km/h N -1,5 C 1,0 C 2,0 km/h
03.11.2012 06:00 1,4 C 83 % 1010,8 hPa 0,0 l/m 0,2 km/h N -1,2 C 1,4 C 2,8 km/h
03.11.2012 07:00 1,4 C 82 % 1011,9 hPa 0,0 l/m 0,0 km/h N -1,3 C 1,4 C 0,0 km/h
03.11.2012 08:00 3,0 C 80 % 1012,3 hPa 0,0 l/m 0,7 km/h N -0,1 C 3,0 C 4,0 km/h
03.11.2012 09:00 3,8 C 80 % 1012,3 hPa 0,0 l/m 0,4 km/h N 0,6 C 3,8 C 4,0 km/h
03.11.2012 10:00 4,6 C 79 % 1012,1 hPa 0,0 l/m 1,7 km/h N 1,3 C 4,6 C 6,8 km/h
03.11.2012 11:00 5,1 C 79 % 1011,5 hPa 0,0 l/m 2,3 km/h N 1,8 C 5,1 C 7,6 km/h
03.11.2012 12:00 5,1 C 80 % 1011,1 hPa 0,0 l/m 1,7 km/h N 1,9 C 5,1 C 6,4 km/h
03.11.2012 13:00 5,5 C 80 % 1010,6 hPa 0,0 l/m 0,2 km/h N 2,4 C 5,5 C 3,6 km/h
03.11.2012 14:00 6,1 C 81 % 1010,0 hPa 0,0 l/m 0,5 km/h N 3,0 C 6,1 C 4,0 km/h
03.11.2012 15:00 6,5 C 82 % 1009,5 hPa 0,0 l/m 0,2 km/h N 3,6 C 6,5 C 1,2 km/h
03.11.2012 16:00 6,6 C 82 % 1009,2 hPa 0,0 l/m 0,5 km/h N 3,7 C 6,6 C 3,6 km/h
03.11.2012 17:00 6,3 C 83 % 1009,0 hPa 0,0 l/m 1,1 km/h N 3,5 C 6,3 C 5,6 km/h
03.11.2012 18:00 5,6 C 83 % 1008,8 hPa 0,0 l/m 1,1 km/h N 2,9 C 5,6 C 6,8 km/h
03.11.2012 19:00 4,9 C 83 % 1008,8 hPa 0,0 l/m 1,1 km/h N 2,2 C 4,9 C 6,4 km/h
03.11.2012 20:00 4,4 C 82 % 1009,0 hPa 0,0 l/m 0,3 km/h N 1,6 C 4,4 C 2,8 km/h
03.11.2012 21:00 3,8 C 82 % 1008,8 hPa 0,0 l/m 0,2 km/h N 1,0 C 3,8 C 2,4 km/h
03.11.2012 22:00 3,2 C 82 % 1008,7 hPa 0,0 l/m 0,0 km/h N 0,4 C 3,2 C 0,8 km/h
03.11.2012 23:00 3,2 C 81 % 1008,6 hPa 0,0 l/m 0,3 km/h N 0,3 C 3,2 C 3,2 km/h
04.11.2012 00:00 4,0 C 80 % 1008,3 hPa 0,0 l/m 0,3 km/h N 0,8 C 4,0 C 2,0 km/h
04.11.2012 01:00 4,6 C 80 % 1008,1 hPa 0,0 l/m 0,3 km/h N 1,3 C 4,6 C 2,4 km/h
04.11.2012 02:00 4,7 C 80 % 1007,9 hPa 0,0 l/m 0,2 km/h N 1,5 C 4,7 C 2,4 km/h
04.11.2012 03:00 4,6 C 79 % 1007,8 hPa 0,0 l/m 0,2 km/h N 1,3 C 4,6 C 2,8 km/h
04.11.2012 04:00 5,0 C 79 % 1007,9 hPa 0,0 l/m 0,2 km/h N 1,6 C 5,0 C 3,2 km/h
04.11.2012 05:00 5,6 C 78 % 1008,0 hPa 0,0 l/m 1,3 km/h N 2,1 C 5,6 C 6,0 km/h
04.11.2012 06:00 5,9 C 79 % 1008,0 hPa 0,0 l/m 2,0 km/h N 2,5 C 5,9 C 7,2 km/h
04.11.2012 07:00 5,4 C 79 % 1008,6 hPa 0,0 l/m 0,3 km/h N 2,1 C 5,4 C 2,4 km/h
04.11.2012 08:00 5,9 C 79 % 1008,9 hPa 0,0 l/m 3,2 km/h N 2,5 C 5,9 C 9,7 km/h
04.11.2012 09:00 6,5 C 79 % 1009,4 hPa 0,0 l/m 5,9 km/h N 3,1 C 6,1 C 14,5 km/h
04.11.2012 10:00 6,9 C 80 % 1009,8 hPa 0,0 l/m 7,1 km/h N 3,7 C 6,2 C 16,5 km/h
04.11.2012 11:00 7,6 C 82 % 1009,0 hPa 0,0 l/m 4,3 km/h N 4,7 C 7,6 C 11,3 km/h
04.11.2012 12:00 8,6 C 83 % 1007,9 hPa 0,0 l/m 0,8 km/h N 5,9 C 8,6 C 5,6 km/h
04.11.2012 13:00 9,0 C 85 % 1007,2 hPa 0,0 l/m 0,7 km/h N 6,6 C 9,0 C 5,2 km/h
04.11.2012 14:00 9,4 C 85 % 1006,3 hPa 0,0 l/m 0,7 km/h N 7,1 C 9,4 C 5,2 km/h
04.11.2012 15:00 9,2 C 85 % 1005,6 hPa 0,0 l/m 3,0 km/h N 6,8 C 9,2 C 9,3 km/h
04.11.2012 16:00 9,0 C 85 % 1004,8 hPa 0,0 l/m 0,1 km/h N 6,6 C 9,0 C 1,2 km/h
04.11.2012 17:00 8,5 C 85 % 1004,2 hPa 0,0 l/m 0,0 km/h N 6,1 C 8,5 C 0,0 km/h
04.11.2012 18:00 7,2 C 85 % 1003,6 hPa 0,0 l/m 0,0 km/h N 4,8 C 7,2 C 0,0 km/h
04.11.2012 19:00 5,9 C 85 % 1003,0 hPa 0,0 l/m 0,0 km/h N 3,5 C 5,9 C 0,0 km/h
04.11.2012 20:00 5,4 C 84 % 1001,9 hPa 0,0 l/m 0,0 km/h N 2,9 C 5,4 C 0,0 km/h
04.11.2012 21:00 4,9 C 83 % 1000,9 hPa 0,0 l/m 0,0 km/h N 2,2 C 4,9 C 0,8 km/h
04.11.2012 22:00 6,2 C 80 % 999,5 hPa 0,0 l/m 0,3 km/h N 2,9 C 6,2 C 3,2 km/h
04.11.2012 23:00 10,8 C 77 % 998,0 hPa 0,0 l/m 5,7 km/h N 7,0 C 9,7 C 19,7 km/h
Min-Datum _ 31.10.12 30.10.12 01.11.12 - 29.10.12 - 30.10.12 29.10.12 29.10.12
_ Min-Zeit 06:30 14:15 14:00 - 01:30 - 06:45 10:45 01:30
Minimum _ -2,2 C 61 % 994,4 hPa - 0,0 km/h - -4,6 C -3,2 C 0,0 km/h
Max-Datum _ 04.11.12 29.10.12 29.10.12 29.10.12 31.10.12 - 04.11.12 04.11.12 31.10.12
_ Max-Zeit 23:45 14:00 11:15 14:00 19:30 - 23:45 23:45 21:15
Maximum _ 13,1 C 86 % 1013,9 hPa 1,6 l/m 14,9 km/h
N
- 10,1 C 10,7 C 35,4 km/h
N
Durchschnitt _ 4,0 C 81 % 1007,6 hPa #13,0 l/m 2,6 km/h N 0,9 C 3,6 C 8,1 km/h